オークランド の空港の天気 - METARとTAF

オークランド国際空港 ( NZAA / AKL ) - ニュージーランド オークランド|オークランド
飛行場実況気象(Metar)
観測時間04/26 02:30 NZST (04/25 14:30 UTC)
風向・風速北北東 1m/s
視程10km以上
天気現象
全天の8割程度の雲 雲底高度 1460m
気温12℃
湿度94%
気圧1023hPa
METARNZAA 251430Z AUTO 03002KT 9999 BKN048/// 12/11 Q1023 NOSIG
過去の天気等 Google飛行場航空写真 Wunderground天気予報

過去48時間のMETAR

飛行場予報(TAF)
発表時間: 4/25 23:27 NZST (4/25 11:27 UTC)
予報対象時間: 26日0時 NZST ~ 27日0時 NZST
風向・風速南西 3m/s
視程10km以上
少しの雲 雲底高度 910m
26日1時 NZST から 確率 40% で
視程2,000m
天気現象もや
TAF NZAA 251127Z 2512/2612 22005KT 9999 FEW030
PROB40 2513/2519 2000 BR